Time;durP1;ratioP1;P1;durP2;ratioP2;P2;SDS_P1;SDS_P2;PMS_P1;PMS_P2;Temp;Humidity;BMP_temperature;BMP_pressure;BME280_temperature;BME280_humidity;BME280_pressure;Samples;Min_cycle;Max_cycle;Signal;HPM_P1;HPM_P2
2021/06/02 00:00:26;;;;;;;4.20;1.57;;;14.90;99.90;;;;;;5106199;28;20467;-83
2021/06/02 00:02:54;;;;;;;3.00;1.60;;;14.80;99.90;;;;;;5101317;28;20442;-82
2021/06/02 00:05:22;;;;;;;1.80;1.70;;;14.90;99.90;;;;;;5102219;28;20483;-83
2021/06/02 00:07:50;;;;;;;3.13;1.60;;;14.80;99.90;;;;;;5101484;28;20440;-83
2021/06/02 00:10:18;;;;;;;5.53;1.70;;;14.50;99.90;;;;;;5101717;28;20895;-83
2021/06/02 00:12:46;;;;;;;1.73;1.63;;;14.60;99.90;;;;;;5102330;28;20459;-83
2021/06/02 00:15:13;;;;;;;3.53;1.33;;;14.70;99.90;;;;;;5102489;28;20436;-83
2021/06/02 00:17:39;;;;;;;2.10;1.70;;;14.80;99.90;;;;;;5106329;28;20451;-83
2021/06/02 00:20:08;;;;;;;1.80;1.70;;;14.90;99.90;;;;;;5105560;28;20435;-83
2021/06/02 00:22:34;;;;;;;1.90;1.80;;;14.90;99.90;;;;;;5100964;28;20467;-82
2021/06/02 00:25:01;;;;;;;1.97;1.80;;;14.70;99.90;;;;;;5101097;28;20478;-85
2021/06/02 00:27:29;;;;;;;3.20;1.93;;;14.40;99.90;;;;;;5104359;28;20450;-84
2021/06/02 00:30:01;;;;;;;2.33;1.77;;;14.10;99.90;;;;;;5109900;28;20455;-84
2021/06/02 00:32:28;;;;;;;2.80;2.20;;;14.20;99.90;;;;;;5115478;28;20482;-83
2021/06/02 00:34:55;;;;;;;1.60;1.50;;;14.10;99.90;;;;;;5116332;28;20420;-83
2021/06/02 00:37:22;;;;;;;2.10;1.80;;;14.10;99.90;;;;;;5114120;28;20444;-83
2021/06/02 00:39:49;;;;;;;3.07;2.27;;;14.00;99.90;;;;;;5104046;28;20452;-84
2021/06/02 00:42:16;;;;;;;3.43;2.03;;;14.20;99.90;;;;;;5102487;28;20464;-83
2021/06/02 00:44:43;;;;;;;2.03;1.80;;;13.90;99.90;;;;;;5100813;28;21003;-83
2021/06/02 00:47:11;;;;;;;2.00;1.90;;;13.70;99.90;;;;;;5100671;28;20446;-83
2021/06/02 00:49:37;;;;;;;1.63;1.53;;;13.80;99.90;;;;;;5101138;28;20440;-83
2021/06/02 00:52:06;;;;;;;4.47;2.47;;;14.00;99.90;;;;;;5100474;28;20482;-83
2021/06/02 00:54:36;;;;;;;2.00;1.87;;;14.10;99.90;;;;;;5100917;28;20451;-83
2021/06/02 00:57:04;;;;;;;1.80;1.70;;;14.30;99.90;;;;;;5101423;28;20456;-83
2021/06/02 00:59:33;;;;;;;2.80;1.87;;;14.30;99.90;;;;;;5100149;28;20525;-83
2021/06/02 01:02:00;;;;;;;2.23;2.00;;;14.30;99.90;;;;;;5100695;28;20483;-83
2021/06/02 01:04:28;;;;;;;3.10;2.10;;;14.40;99.90;;;;;;5100330;28;20486;-83
2021/06/02 01:06:55;;;;;;;1.70;1.60;;;14.40;99.90;;;;;;5099278;28;20439;-83
2021/06/02 01:09:22;;;;;;;5.90;2.80;;;14.20;99.90;;;;;;5100747;28;20457;-83
2021/06/02 01:11:49;;;;;;;2.07;1.50;;;14.30;99.90;;;;;;5103381;28;20544;-83
2021/06/02 01:14:16;;;;;;;1.80;1.70;;;14.30;99.90;;;;;;5100121;28;20991;-83
2021/06/02 01:16:42;;;;;;;2.03;1.83;;;14.10;99.90;;;;;;5110747;28;20444;-83
2021/06/02 01:19:11;;;;;;;3.80;2.17;;;13.80;99.90;;;;;;5111362;28;20425;-83
2021/06/02 01:21:50;;;;;;;2.30;2.10;;;13.60;99.90;;;;;;5109674;28;20977;-83
2021/06/02 01:24:16;;;;;;;2.87;2.00;;;13.50;99.90;;;;;;5110846;28;20463;-83
2021/06/02 01:26:43;;;;;;;4.23;2.20;;;13.50;99.90;;;;;;5103365;28;20428;-84
2021/06/02 01:29:09;;;;;;;2.47;2.27;;;13.70;99.90;;;;;;5102726;28;20463;-84
2021/06/02 01:32:05;;;;;;;4.20;2.50;;;13.80;99.90;;;;;;5101107;28;20810;-83
2021/06/02 01:34:59;;;;;;;4.27;2.93;;;13.70;99.90;;;;;;5101688;28;20428;-83
2021/06/02 01:37:55;;;;;;;2.47;2.03;;;13.50;99.90;;;;;;5101009;28;20435;-83
2021/06/02 01:40:45;;;;;;;2.40;2.10;;;13.60;99.90;;;;;;5100004;28;20812;-83
2021/06/02 01:43:31;;;;;;;3.43;2.27;;;13.70;99.90;;;;;;5083703;28;20806;-83
2021/06/02 01:46:22;;;;;;;7.53;2.77;;;13.80;99.90;;;;;;5109402;28;20486;-83
2021/06/02 01:49:03;;;;;;;3.80;3.23;;;13.90;99.90;;;;;;5116834;28;20420;-81
2021/06/02 01:52:11;;;;;;;2.90;2.70;;;14.00;99.90;;;;;;5101528;28;20506;-83
2021/06/02 01:55:17;;;;;;;4.20;2.80;;;13.90;99.90;;;;;;5100875;28;20424;-84
2021/06/02 01:58:06;;;;;;;2.57;2.40;;;13.50;99.90;;;;;;5100839;28;20439;-83
2021/06/02 02:00:46;;;;;;;6.67;3.63;;;13.20;99.90;;;;;;5103268;28;20420;-83
2021/06/02 02:03:36;;;;;;;3.40;2.83;;;13.20;99.90;;;;;;5098511;28;20524;-82
2021/06/02 02:06:20;;;;;;;5.60;3.00;;;13.40;99.90;;;;;;5099236;28;20479;-83
2021/06/02 02:08:52;;;;;;;6.57;3.33;;;13.40;99.90;;;;;;5100746;28;20462;-84
2021/06/02 02:11:29;;;;;;;4.77;3.23;;;13.20;99.90;;;;;;5098968;28;20464;-83
2021/06/02 02:14:05;;;;;;;4.37;3.60;;;13.40;99.90;;;;;;5109796;28;20453;-83
2021/06/02 02:16:36;;;;;;;4.50;3.17;;;13.40;99.90;;;;;;5108584;28;20402;-83
2021/06/02 02:19:17;;;;;;;8.23;3.77;;;13.30;99.90;;;;;;5108037;28;20447;-84
2021/06/02 02:21:51;;;;;;;3.40;3.10;;;13.40;99.90;;;;;;5100913;28;20458;-84
2021/06/02 02:24:28;;;;;;;4.17;3.30;;;13.40;99.90;;;;;;5100876;28;20467;-83
2021/06/02 02:27:01;;;;;;;3.87;3.47;;;13.40;99.90;;;;;;5100624;28;20758;-84
2021/06/02 02:29:42;;;;;;;3.93;3.10;;;13.20;99.90;;;;;;5100840;28;20450;-84
2021/06/02 02:32:22;;;;;;;5.40;3.43;;;13.20;99.90;;;;;;5101438;28;20470;-84
2021/06/02 02:35:01;;;;;;;3.40;3.10;;;13.40;99.90;;;;;;5102188;28;20419;-84
2021/06/02 02:37:34;;;;;;;4.20;3.30;;;13.50;99.90;;;;;;5102552;28;20424;-84
2021/06/02 02:40:05;;;;;;;7.33;3.90;;;13.10;99.90;;;;;;5099473;28;20434;-83
2021/06/02 02:42:42;;;;;;;3.60;3.30;;;13.20;99.90;;;;;;5104910;28;20460;-83
2021/06/02 02:45:20;;;;;;;4.17;3.17;;;13.30;99.90;;;;;;5099778;28;20478;-83
2021/06/02 02:47:59;;;;;;;3.87;3.47;;;13.40;99.90;;;;;;5099637;28;20504;-83
2021/06/02 02:50:32;;;;;;;4.10;3.50;;;13.50;99.90;;;;;;5104029;28;20450;-83
2021/06/02 02:53:05;;;;;;;3.37;3.07;;;13.20;99.90;;;;;;5150550;22;20491;-84
2021/06/02 02:55:33;;;;;;;4.00;3.53;;;13.10;99.90;;;;;;5113804;28;20764;-84
2021/06/02 02:58:09;;;;;;;4.50;3.33;;;13.10;99.90;;;;;;5114382;28;20466;-85
2021/06/02 03:00:41;;;;;;;4.23;3.37;;;13.00;99.90;;;;;;5109282;28;20882;-85
2021/06/02 03:03:13;;;;;;;3.90;3.60;;;13.00;99.90;;;;;;5101234;28;20474;-85
2021/06/02 03:05:55;;;;;;;4.20;3.47;;;12.90;99.90;;;;;;5098258;28;20467;-86
2021/06/02 03:08:31;;;;;;;3.90;3.33;;;13.10;99.90;;;;;;5098120;28;20485;-85
2021/06/02 03:11:04;;;;;;;8.07;4.47;;;13.20;99.90;;;;;;5097980;28;20443;-85
2021/06/02 03:13:41;;;;;;;8.93;4.30;;;13.20;99.90;;;;;;5098483;28;20497;-85
2021/06/02 03:16:12;;;;;;;7.30;4.17;;;13.00;99.90;;;;;;5111036;28;20454;-85
2021/06/02 03:18:43;;;;;;;5.63;3.63;;;13.10;99.90;;;;;;5111678;28;20435;-85
2021/06/02 03:21:25;;;;;;;6.43;4.30;;;13.10;99.90;;;;;;5104095;28;20450;-85
2021/06/02 03:24:08;;;;;;;9.33;4.50;;;13.20;99.90;;;;;;5103180;28;20431;-85
2021/06/02 03:26:38;;;;;;;7.50;4.57;;;13.20;99.90;;;;;;5100709;28;20417;-85
2021/06/02 03:29:20;;;;;;;5.27;4.77;;;13.10;99.90;;;;;;5101526;28;20450;-85
2021/06/02 03:32:02;;;;;;;6.77;4.30;;;13.10;99.90;;;;;;5100675;28;20463;-85
2021/06/02 03:34:42;;;;;;;6.27;4.83;;;13.10;99.90;;;;;;5101246;28;20435;-86
2021/06/02 03:37:19;;;;;;;7.10;4.90;;;13.10;99.90;;;;;;5099232;28;20741;-85
2021/06/02 03:39:49;;;;;;;5.70;4.90;;;13.10;99.90;;;;;;5097846;28;20427;-85
2021/06/02 03:42:25;;;;;;;13.27;5.47;;;12.90;99.90;;;;;;5097635;28;20799;-85
2021/06/02 03:45:04;;;;;;;5.30;4.80;;;12.60;99.90;;;;;;5098197;28;20671;-85
2021/06/02 03:47:42;;;;;;;6.40;5.20;;;12.70;99.90;;;;;;5097490;28;20455;-85
2021/06/02 03:50:16;;;;;;;6.97;5.23;;;12.70;99.90;;;;;;5098390;28;20411;-86
2021/06/02 03:53:16;;;;;;;8.03;5.40;;;12.70;99.90;;;;;;5098273;28;20503;-86
2021/06/02 03:55:47;;;;;;;7.37;5.30;;;12.80;99.90;;;;;;5015923;28;20419;-86
2021/06/02 03:58:29;;;;;;;9.00;7.50;;;12.40;99.90;;;;;;5093023;28;20452;-85
2021/06/02 04:01:10;;;;;;;5.50;5.00;;;12.50;99.90;;;;;;5103026;28;20423;-85
2021/06/02 04:03:53;;;;;;;8.60;4.80;;;12.60;99.90;;;;;;5104027;28;20416;-85
2021/06/02 04:06:27;;;;;;;9.95;4.72;;;12.70;99.90;;;;;;5100350;28;20850;-85
2021/06/02 04:08:58;;;;;;;8.23;5.20;;;12.80;99.90;;;;;;5101285;28;20186;-86
2021/06/02 04:11:35;;;;;;;11.10;5.97;;;12.70;99.90;;;;;;5103318;28;20463;-86
2021/06/02 04:14:03;;;;;;;8.20;5.87;;;12.50;99.90;;;;;;5108265;28;20413;-85
2021/06/02 04:16:35;;;;;;;5.60;5.10;;;12.60;99.90;;;;;;5120649;28;20446;-84
2021/06/02 04:19:04;;;;;;;7.77;5.13;;;12.60;99.90;;;;;;5107621;28;20436;-85
2021/06/02 04:21:32;;;;;;;7.00;5.33;;;12.80;99.90;;;;;;5112950;28;20471;-85
2021/06/02 04:24:02;;;;;;;7.97;7.17;;;12.80;99.90;;;;;;5107740;28;20877;-85
2021/06/02 04:26:30;;;;;;;8.47;6.80;;;12.80;99.90;;;;;;5103254;28;20439;-85
2021/06/02 04:28:59;;;;;;;8.20;5.40;;;12.60;99.90;;;;;;5106459;28;20443;-85
2021/06/02 04:31:27;;;;;;;10.53;6.40;;;12.70;99.90;;;;;;5106166;28;20527;-85
2021/06/02 04:33:56;;;;;;;8.77;5.50;;;12.80;99.90;;;;;;5104727;28;20450;-85
2021/06/02 04:36:24;;;;;;;6.83;5.60;;;12.90;99.90;;;;;;5101314;28;20447;-85
2021/06/02 04:38:52;;;;;;;7.87;5.40;;;12.80;99.90;;;;;;5100958;28;20950;-85
2021/06/02 04:41:22;;;;;;;6.77;5.17;;;12.90;99.90;;;;;;5100620;28;20566;-85
2021/06/02 04:43:50;;;;;;;7.70;5.13;;;13.00;99.90;;;;;;5100113;28;20533;-85
2021/06/02 04:46:18;;;;;;;12.60;5.70;;;13.10;99.90;;;;;;5100845;28;20539;-85
2021/06/02 04:48:44;;;;;;;7.73;5.30;;;13.20;99.90;;;;;;5099864;28;20450;-86
2021/06/02 04:51:59;;;;;;;6.80;5.77;;;12.80;99.90;;;;;;5099199;28;20499;-85
2021/06/02 04:55:07;;;;;;;9.60;6.10;;;13.00;99.90;;;;;;5101126;28;20937;-86
2021/06/02 04:58:02;;;;;;;7.60;5.50;;;12.80;99.90;;;;;;5100927;28;20439;-86
2021/06/02 05:00:43;;;;;;;8.77;6.20;;;12.80;99.90;;;;;;5099811;28;20436;-86
2021/06/02 05:04:03;;;;;;;11.53;6.20;;;12.80;99.90;;;;;;5113019;28;20477;-84
2021/06/02 05:07:00;;;;;;;6.33;5.30;;;12.60;99.90;;;;;;5102862;28;20413;-86
2021/06/02 05:10:21;;;;;;;7.10;5.23;;;12.80;99.90;;;;;;5110054;28;20416;-86
2021/06/02 05:13:35;;;;;;;8.30;5.37;;;13.00;99.90;;;;;;5114957;28;20456;-87
2021/06/02 05:16:31;;;;;;;4.97;4.50;;;12.80;99.90;;;;;;5100817;28;20428;-86
2021/06/02 05:23:05;;;;;;;6.13;5.50;;;12.90;99.90;;;;;;5099186;28;21003;-86
2021/06/02 05:26:16;;;;;;;6.07;5.10;;;13.20;99.90;;;;;;5098078;28;20468;-86
2021/06/02 05:29:09;;;;;;;9.07;5.67;;;13.10;99.90;;;;;;5098020;28;20453;-86
2021/06/02 05:32:09;;;;;;;8.03;5.23;;;13.30;99.90;;;;;;5098210;28;20445;-86
2021/06/02 05:35:15;;;;;;;6.00;5.10;;;13.50;99.90;;;;;;5053722;28;20472;-86
2021/06/02 05:38:18;;;;;;;9.47;5.80;;;13.50;99.90;;;;;;5098308;28;20428;-86
2021/06/02 05:41:03;;;;;;;8.20;5.13;;;13.70;99.90;;;;;;5098286;28;20439;-86
2021/06/02 05:43:50;;;;;;;11.40;6.30;;;13.80;99.90;;;;;;5098198;28;20428;-86
2021/06/02 05:46:52;;;;;;;8.10;4.77;;;13.90;99.90;;;;;;5053877;28;20875;-86
2021/06/02 05:50:02;;;;;;;6.03;4.80;;;13.80;99.90;;;;;;5099239;28;20408;-86
2021/06/02 05:52:44;;;;;;;4.80;4.33;;;14.00;99.90;;;;;;5097489;28;20482;-86
2021/06/02 05:55:43;;;;;;;9.23;4.40;;;14.20;99.90;;;;;;5099313;28;20424;-86
2021/06/02 05:58:50;;;;;;;11.90;5.13;;;14.40;99.90;;;;;;5108138;28;20454;-87
2021/06/02 06:01:30;;;;;;;8.50;4.60;;;14.60;99.90;;;;;;5078412;28;20464;-86
2021/06/02 06:04:26;;;;;;;6.27;4.70;;;14.50;99.90;;;;;;5114003;28;20420;-86
2021/06/02 06:07:08;;;;;;;6.80;4.87;;;14.80;99.90;;;;;;5112498;28;20432;-86
2021/06/02 06:09:58;;;;;;;10.63;5.70;;;15.00;99.90;;;;;;5111222;28;20424;-86
2021/06/02 06:13:02;;;;;;;6.57;4.23;;;15.30;99.90;;;;;;5110200;28;20483;-86
2021/06/02 06:16:03;;;;;;;8.73;4.20;;;15.30;99.90;;;;;;5110593;28;20495;-86
2021/06/02 06:19:07;;;;;;;6.13;3.63;;;15.30;99.90;;;;;;5110382;28;20423;-86
2021/06/02 06:22:02;;;;;;;7.00;5.00;;;15.40;99.90;;;;;;5111640;28;20466;-86
2021/06/02 06:24:35;;;;;;;5.27;4.50;;;15.50;99.90;;;;;;5104893;28;20434;-86
2021/06/02 06:27:05;;;;;;;6.63;4.47;;;15.60;99.90;;;;;;5102665;28;20498;-86
2021/06/02 06:29:41;;;;;;;5.07;4.37;;;15.50;99.90;;;;;;5107753;28;20432;-86
2021/06/02 06:32:08;;;;;;;8.03;4.80;;;15.80;99.90;;;;;;5108198;28;20470;-86
2021/06/02 06:34:37;;;;;;;6.33;5.00;;;15.80;99.90;;;;;;5111040;28;21008;-85
2021/06/02 06:37:05;;;;;;;9.90;6.80;;;15.80;99.90;;;;;;5115219;28;20507;-87
2021/06/02 06:39:44;;;;;;;6.20;5.07;;;15.60;99.90;;;;;;5116777;28;20431;-85
2021/06/02 06:42:13;;;;;;;9.73;4.77;;;15.80;99.90;;;;;;5116088;28;20463;-86
2021/06/02 06:44:42;;;;;;;5.73;4.63;;;16.00;99.90;;;;;;5114859;28;20464;-86
2021/06/02 06:47:13;;;;;;;9.57;4.70;;;16.20;99.90;;;;;;5107504;28;20443;-86
2021/06/02 06:49:40;;;;;;;6.07;4.60;;;16.10;99.90;;;;;;5102641;28;20523;-85
2021/06/02 06:52:06;;;;;;;7.30;5.20;;;16.40;99.90;;;;;;5100833;28;21008;-85
2021/06/02 06:54:33;;;;;;;5.80;4.90;;;16.10;99.90;;;;;;5100574;28;20527;-86
2021/06/02 06:57:00;;;;;;;9.83;5.20;;;16.10;99.90;;;;;;5098259;28;20451;-86
2021/06/02 06:59:27;;;;;;;7.50;5.23;;;16.30;99.90;;;;;;5099055;28;20509;-86
2021/06/02 07:01:53;;;;;;;8.43;5.60;;;16.60;99.90;;;;;;5098843;28;20851;-86
2021/06/02 07:04:21;;;;;;;5.17;4.67;;;16.40;99.90;;;;;;5098858;28;20447;-86
2021/06/02 07:06:48;;;;;;;6.07;4.17;;;16.30;99.90;;;;;;5097006;28;20504;-86
2021/06/02 07:09:14;;;;;;;9.03;5.57;;;16.40;99.90;;;;;;5098311;28;20436;-86
2021/06/02 07:11:41;;;;;;;5.47;4.97;;;16.60;99.90;;;;;;5109001;28;20447;-86
2021/06/02 07:14:10;;;;;;;6.30;4.53;;;16.80;99.90;;;;;;5110707;28;20427;-86
2021/06/02 07:16:37;;;;;;;7.00;5.57;;;16.70;99.90;;;;;;5101131;28;20462;-86
2021/06/02 07:19:05;;;;;;;7.60;5.60;;;16.70;99.90;;;;;;5101532;28;20439;-86
2021/06/02 07:21:35;;;;;;;7.70;5.60;;;16.70;99.90;;;;;;5108086;28;20464;-86
2021/06/02 07:24:01;;;;;;;5.17;4.67;;;16.80;99.90;;;;;;5098576;28;20449;-87
2021/06/02 07:26:27;;;;;;;8.30;4.77;;;17.00;99.90;;;;;;5096434;28;20502;-86
2021/06/02 07:28:56;;;;;;;8.97;5.07;;;17.10;99.90;;;;;;5097507;28;20440;-87
2021/06/02 07:31:22;;;;;;;4.77;4.37;;;17.30;99.90;;;;;;5096369;28;20468;-86
2021/06/02 07:33:48;;;;;;;5.97;4.40;;;17.40;99.90;;;;;;5095275;28;20448;-86
2021/06/02 07:36:14;;;;;;;5.53;4.23;;;17.40;99.90;;;;;;5097289;28;20473;-86
2021/06/02 07:38:42;;;;;;;8.07;5.63;;;17.50;99.90;;;;;;5097340;28;20816;-86
2021/06/02 07:41:09;;;;;;;6.20;5.27;;;17.50;99.90;;;;;;5096796;28;20434;-86
2021/06/02 07:43:36;;;;;;;9.73;5.77;;;17.20;99.90;;;;;;5097353;28;20433;-86
2021/06/02 07:46:03;;;;;;;8.90;6.47;;;17.40;99.90;;;;;;5097132;28;20506;-86
2021/06/02 07:48:29;;;;;;;7.70;5.33;;;17.50;99.90;;;;;;5105515;28;20813;-85
2021/06/02 07:50:58;;;;;;;8.33;6.13;;;17.50;99.90;;;;;;5108149;28;20447;-85
2021/06/02 07:53:24;;;;;;;6.73;5.20;;;17.70;99.90;;;;;;5107250;28;20910;-85
2021/06/02 07:55:52;;;;;;;8.00;5.40;;;17.70;99.90;;;;;;5105655;28;20464;-86
2021/06/02 07:58:18;;;;;;;8.23;5.90;;;18.90;99.90;;;;;;5104715;28;20778;-86
2021/06/02 08:00:44;;;;;;;10.27;5.80;;;17.50;99.90;;;;;;5103930;28;20445;-86
2021/06/02 08:03:11;;;;;;;6.40;5.80;;;17.50;99.90;;;;;;5103347;28;20472;-86
2021/06/02 08:05:38;;;;;;;9.53;6.90;;;17.70;99.90;;;;;;5101645;28;21010;-86
2021/06/02 08:08:04;;;;;;;6.93;6.03;;;17.90;99.90;;;;;;5103498;28;20432;-86
2021/06/02 08:10:30;;;;;;;7.70;7.00;;;18.00;99.90;;;;;;5100185;28;20798;-86
2021/06/02 08:13:01;;;;;;;6.90;5.60;;;18.20;99.90;;;;;;5100345;28;20968;-86
2021/06/02 08:15:28;;;;;;;9.90;5.63;;;18.30;99.90;;;;;;5101238;28;20434;-86
2021/06/02 08:17:54;;;;;;;14.73;6.70;;;18.40;99.90;;;;;;5099820;28;20461;-86
2021/06/02 08:20:23;;;;;;;8.23;6.83;;;18.30;99.90;;;;;;5099678;28;20450;-86
2021/06/02 08:22:50;;;;;;;7.50;6.13;;;18.30;99.90;;;;;;5097235;28;20460;-87
2021/06/02 08:25:17;;;;;;;6.97;6.23;;;18.40;99.90;;;;;;5098124;28;20512;-86
2021/06/02 08:27:44;;;;;;;9.47;5.80;;;18.50;99.90;;;;;;5100647;28;21004;-86
2021/06/02 08:30:12;;;;;;;5.80;5.30;;;18.70;99.90;;;;;;5099794;28;20445;-86
2021/06/02 08:32:39;;;;;;;6.00;4.90;;;18.80;99.90;;;;;;5099994;28;20473;-86
2021/06/02 08:35:08;;;;;;;8.87;5.43;;;18.90;99.90;;;;;;5101605;28;20446;-86
2021/06/02 08:37:34;;;;;;;7.27;6.00;;;19.00;99.90;;;;;;5100385;28;20449;-87
2021/06/02 08:40:00;;;;;;;7.90;5.40;;;19.00;99.90;;;;;;5104765;28;20462;-85
2021/06/02 08:42:27;;;;;;;7.07;6.17;;;19.00;99.90;;;;;;5103276;28;20469;-86
2021/06/02 08:44:53;;;;;;;6.50;5.07;;;19.10;99.90;;;;;;5101434;28;20576;-85
2021/06/02 08:47:21;;;;;;;5.53;5.03;;;19.20;99.90;;;;;;5100060;28;20440;-86
2021/06/02 08:49:47;;;;;;;8.00;6.00;;;19.10;99.90;;;;;;5101284;28;20443;-85
2021/06/02 08:52:13;;;;;;;6.20;5.40;;;19.10;99.90;;;;;;5099935;28;20485;-86
2021/06/02 08:54:40;;;;;;;6.93;5.87;;;19.10;99.90;;;;;;5100362;28;20449;-85
2021/06/02 08:57:08;;;;;;;6.03;5.43;;;19.20;99.90;;;;;;5103966;28;20440;-86
2021/06/02 08:59:35;;;;;;;8.53;5.77;;;19.30;99.90;;;;;;5102621;28;20446;-87
2021/06/02 09:02:02;;;;;;;9.70;8.17;;;19.40;99.90;;;;;;5099576;28;20470;-84
2021/06/02 09:04:33;;;;;;;8.27;7.33;;;19.40;99.90;;;;;;5100458;28;20451;-84
2021/06/02 09:07:02;;;;;;;7.13;6.30;;;19.50;99.90;;;;;;5101349;28;20435;-85
2021/06/02 09:09:29;;;;;;;7.33;5.30;;;19.60;99.90;;;;;;5102506;28;20433;-86
2021/06/02 09:11:55;;;;;;;6.63;6.00;;;19.50;99.90;;;;;;5100229;28;20471;-86
2021/06/02 09:14:27;;;;;;;7.93;6.50;;;19.60;99.90;;;;;;5100742;28;20453;-86
2021/06/02 09:16:55;;;;;;;9.30;8.40;;;19.70;99.90;;;;;;5107531;28;20425;-86
2021/06/02 09:19:35;;;;;;;8.90;7.23;;;19.80;99.90;;;;;;5104342;28;20530;-86
2021/06/02 09:22:02;;;;;;;6.70;6.17;;;19.90;99.90;;;;;;5100705;28;20458;-80
2021/06/02 09:24:48;;;;;;;11.47;7.00;;;20.00;99.90;;;;;;5100208;28;20440;-80
2021/06/02 09:27:14;;;;;;;9.73;5.60;;;20.10;99.90;;;;;;5101742;28;20545;-80
2021/06/02 09:29:51;;;;;;;8.00;6.37;;;20.10;99.90;;;;;;5108994;28;20451;-80
2021/06/02 09:32:19;;;;;;;17.03;7.30;;;20.10;99.90;;;;;;5108842;28;20855;-80
2021/06/02 09:34:47;;;;;;;6.93;6.30;;;20.20;99.90;;;;;;5104208;28;20444;-81
2021/06/02 09:37:13;;;;;;;7.30;6.60;;;20.30;99.90;;;;;;5104808;28;20501;-81
2021/06/02 09:39:41;;;;;;;9.70;6.67;;;20.40;99.90;;;;;;5102891;28;20458;-81
2021/06/02 09:42:17;;;;;;;9.53;8.10;;;20.40;99.90;;;;;;5109381;28;20505;-80
2021/06/02 09:44:46;;;;;;;6.87;6.20;;;20.50;99.90;;;;;;5107139;28;20443;-80
2021/06/02 09:47:12;;;;;;;11.50;8.53;;;20.40;99.90;;;;;;5101201;28;20469;-80
2021/06/02 09:49:51;;;;;;;8.00;6.20;;;20.50;99.90;;;;;;5101752;28;20444;-80
2021/06/02 09:52:18;;;;;;;7.77;6.53;;;20.60;99.90;;;;;;5099418;28;20482;-81
2021/06/02 09:54:44;;;;;;;6.90;6.20;;;20.70;99.90;;;;;;5100719;28;20942;-80
2021/06/02 09:57:11;;;;;;;7.70;5.97;;;20.80;99.90;;;;;;5101953;28;20440;-80
2021/06/02 09:59:52;;;;;;;10.60;5.20;;;20.80;99.90;;;;;;5108359;28;20463;-81
2021/06/02 10:02:19;;;;;;;6.90;5.60;;;20.90;99.90;;;;;;5100836;28;20464;-81
2021/06/02 10:04:45;;;;;;;6.73;5.53;;;21.00;99.90;;;;;;5103375;28;20456;-80
2021/06/02 10:07:20;;;;;;;8.07;5.90;;;21.10;99.90;;;;;;5103510;28;20448;-81
2021/06/02 10:09:46;;;;;;;7.17;5.90;;;21.10;99.90;;;;;;5100615;28;20428;-80
2021/06/02 10:12:13;;;;;;;9.07;6.37;;;21.20;99.90;;;;;;5099363;28;20510;-83
2021/06/02 10:14:40;;;;;;;9.23;8.33;;;21.20;99.90;;;;;;5098778;28;20444;-81
2021/06/02 10:17:24;;;;;;;13.80;6.10;;;21.20;99.90;;;;;;5101748;28;20451;-82
2021/06/02 10:19:50;;;;;;;10.27;6.03;;;21.20;99.90;;;;;;5103053;28;20886;-82
2021/06/02 10:22:23;;;;;;;8.23;5.50;;;21.30;99.90;;;;;;5098916;28;21017;-81
2021/06/02 10:24:51;;;;;;;6.50;5.13;;;21.40;99.90;;;;;;5099703;28;20859;-81
2021/06/02 10:27:21;;;;;;;6.23;4.70;;;21.50;99.90;;;;;;5098489;28;20444;-81
2021/06/02 10:29:55;;;;;;;6.53;5.60;;;21.50;99.90;;;;;;5098247;28;20968;-82
2021/06/02 10:32:25;;;;;;;11.73;6.13;;;21.50;99.90;;;;;;5099398;28;20448;-82
2021/06/02 10:34:52;;;;;;;6.70;6.00;;;21.60;99.90;;;;;;5099971;28;20447;-81
2021/06/02 10:37:22;;;;;;;6.30;5.40;;;21.60;99.90;;;;;;5098374;28;20455;-81
2021/06/02 10:39:55;;;;;;;6.20;5.20;;;21.70;99.90;;;;;;5099269;28;20500;-81
2021/06/02 10:42:28;;;;;;;11.13;6.37;;;21.80;99.90;;;;;;5098700;28;20554;-81
2021/06/02 10:45:01;;;;;;;7.87;5.90;;;21.70;99.90;;;;;;5098214;28;20482;-81
2021/06/02 10:47:27;;;;;;;7.43;5.70;;;21.70;99.90;;;;;;5098696;28;20440;-81
2021/06/02 10:49:54;;;;;;;11.57;6.00;;;21.80;99.90;;;;;;5099065;28;20444;-80
2021/06/02 10:52:37;;;;;;;7.53;5.40;;;21.90;99.90;;;;;;5098681;28;20479;-81
2021/06/02 10:55:31;;;;;;;5.30;4.77;;;22.00;99.90;;;;;;5099757;28;20453;-80
2021/06/02 10:58:23;;;;;;;7.93;4.80;;;21.90;99.90;;;;;;5098493;28;20431;-79
2021/06/02 11:00:51;;;;;;;4.87;4.40;;;22.00;99.90;;;;;;5099184;28;20797;-81
2021/06/02 11:03:24;;;;;;;8.30;7.50;;;22.00;99.90;;;;;;5101032;28;20444;-81
2021/06/02 11:05:58;;;;;;;8.20;5.93;;;22.00;99.90;;;;;;5101017;28;20463;-80
2021/06/02 11:09:08;;;;;;;9.57;5.07;;;22.10;99.90;;;;;;5103476;28;20497;-80
2021/06/02 11:11:36;;;;;;;5.73;5.13;;;22.30;99.90;;;;;;5098379;28;20468;-80
2021/06/02 11:14:23;;;;;;;6.43;5.93;;;22.40;99.90;;;;;;5099428;28;20425;-81
2021/06/02 11:16:50;;;;;;;6.27;4.70;;;22.40;99.90;;;;;;5098462;28;20448;-82
2021/06/02 11:19:18;;;;;;;5.73;5.17;;;22.30;99.90;;;;;;5097686;28;20451;-81
2021/06/02 11:21:56;;;;;;;5.57;4.90;;;22.10;99.90;;;;;;5100008;28;20478;-81
2021/06/02 11:24:40;;;;;;;5.47;4.97;;;22.00;99.90;;;;;;5101491;28;20444;-82
2021/06/02 11:27:29;;;;;;;5.93;5.10;;;21.80;99.90;;;;;;5099661;28;20464;-82
2021/06/02 11:30:18;;;;;;;5.50;5.10;;;21.90;99.90;;;;;;5100763;28;20474;-81
2021/06/02 11:33:00;;;;;;;6.83;5.77;;;22.10;99.90;;;;;;5103605;28;20496;-81
2021/06/02 11:36:07;;;;;;;9.53;6.50;;;22.20;99.90;;;;;;5099758;28;20421;-81
2021/06/02 11:38:34;;;;;;;5.83;5.30;;;22.30;99.90;;;;;;5100207;28;20443;-82
2021/06/02 11:41:02;;;;;;;6.60;4.90;;;22.10;99.90;;;;;;5099412;28;20459;-83
2021/06/02 11:43:28;;;;;;;8.40;5.97;;;22.10;99.90;;;;;;5102787;28;20448;-83
2021/06/02 11:45:56;;;;;;;8.97;5.67;;;22.00;99.90;;;;;;5102698;28;20492;-82
2021/06/02 11:48:25;;;;;;;5.70;5.20;;;22.10;99.90;;;;;;5105677;28;20467;-81
2021/06/02 11:50:53;;;;;;;5.93;5.40;;;22.00;99.90;;;;;;5104326;28;20450;-82
2021/06/02 11:53:19;;;;;;;8.17;5.27;;;22.10;99.90;;;;;;5106448;28;20460;-81
2021/06/02 11:55:45;;;;;;;6.00;5.10;;;22.30;99.90;;;;;;5107325;28;20433;-82
2021/06/02 11:58:13;;;;;;;5.20;4.70;;;22.40;99.90;;;;;;5111598;28;20472;-82
2021/06/02 12:00:40;;;;;;;4.83;4.43;;;22.50;99.90;;;;;;5103431;28;20450;-82
2021/06/02 12:03:08;;;;;;;5.47;4.27;;;22.60;99.90;;;;;;5104742;28;20575;-83
2021/06/02 12:05:36;;;;;;;6.03;5.43;;;22.80;99.90;;;;;;5104572;28;20505;-82
2021/06/02 12:08:05;;;;;;;5.30;4.90;;;22.90;99.90;;;;;;5109505;28;20454;-83
2021/06/02 12:10:33;;;;;;;5.43;4.60;;;23.00;99.90;;;;;;5111345;28;20441;-82
2021/06/02 12:13:00;;;;;;;4.33;3.87;;;23.00;99.90;;;;;;5109972;28;20464;-82
2021/06/02 12:15:39;;;;;;;5.37;4.87;;;22.80;99.90;;;;;;5106254;28;20435;-83
2021/06/02 12:18:09;;;;;;;5.23;4.63;;;22.70;99.90;;;;;;5104057;28;20440;-82
2021/06/02 12:20:36;;;;;;;4.80;4.40;;;22.50;99.90;;;;;;5106013;28;20935;-82
2021/06/02 12:23:04;;;;;;;9.87;4.10;;;22.40;99.90;;;;;;5105362;28;20463;-83
2021/06/02 12:25:32;;;;;;;6.13;4.23;;;22.30;99.90;;;;;;5104454;28;20508;-82
2021/06/02 12:28:03;;;;;;;5.90;5.33;;;22.10;99.90;;;;;;5100497;28;21030;-82
2021/06/02 12:30:34;;;;;;;9.30;5.00;;;22.10;99.90;;;;;;5101388;28;20619;-82
2021/06/02 12:33:01;;;;;;;9.40;5.20;;;22.10;99.90;;;;;;5101296;28;20842;-82
2021/06/02 12:35:34;;;;;;;5.83;5.20;;;22.10;99.90;;;;;;5106461;28;20444;-80
2021/06/02 12:38:02;;;;;;;4.70;4.27;;;22.10;99.90;;;;;;5111838;28;20525;-81
2021/06/02 12:40:29;;;;;;;4.80;4.27;;;22.20;99.90;;;;;;5112985;28;20452;-80
2021/06/02 12:42:55;;;;;;;8.83;5.10;;;22.20;99.90;;;;;;5109514;28;20472;-81
2021/06/02 12:45:23;;;;;;;5.80;3.73;;;22.20;99.90;;;;;;5107147;28;20533;-81
2021/06/02 12:47:50;;;;;;;4.63;4.30;;;22.10;99.90;;;;;;5105030;28;20444;-81
2021/06/02 12:50:36;;;;;;;4.60;4.20;;;22.10;99.90;;;;;;5105949;28;20452;-81
2021/06/02 12:53:03;;;;;;;7.07;5.50;;;22.00;99.90;;;;;;5105733;28;20486;-81
2021/06/02 12:55:32;;;;;;;5.50;4.87;;;22.00;99.90;;;;;;5108215;28;20445;-81
2021/06/02 12:58:01;;;;;;;8.43;5.37;;;22.00;99.90;;;;;;5115422;28;20469;-81
2021/06/02 13:00:27;;;;;;;4.73;4.23;;;22.00;99.90;;;;;;5118315;28;20431;-80
2021/06/02 13:02:55;;;;;;;4.30;3.90;;;21.80;99.90;;;;;;5119096;28;20475;-81
2021/06/02 13:05:21;;;;;;;4.70;4.30;;;22.10;99.90;;;;;;5117292;28;20546;-79
2021/06/02 13:07:48;;;;;;;5.37;4.97;;;22.20;99.90;;;;;;5108721;28;20444;-78
2021/06/02 13:10:15;;;;;;;6.97;4.57;;;22.40;99.90;;;;;;5108361;28;20443;-78
2021/06/02 13:12:50;;;;;;;5.10;4.70;;;22.60;99.90;;;;;;5107417;28;20529;-78
2021/06/02 13:15:28;;;;;;;5.20;4.70;;;22.90;99.90;;;;;;5109244;28;20760;-78
2021/06/02 13:17:56;;;;;;;15.23;4.03;;;23.10;99.90;;;;;;5104046;28;20954;-78
2021/06/02 13:20:43;;;;;;;5.07;4.60;;;23.20;99.90;;;;;;5104167;28;20460;-79
2021/06/02 13:23:15;;;;;;;6.07;5.43;;;23.30;99.90;;;;;;5099970;28;20472;-88
2021/06/02 13:25:42;;;;;;;4.30;3.90;;;23.20;99.90;;;;;;5109879;28;20478;-89